Time,TemperatureF,DewpointF,PressureIn,WindDirection,WindDirectionDegrees,WindSpeedMPH,WindSpeedGustMPH,Humidity,HourlyPrecipIn,Conditions,Clouds,dailyrainin,SolarRadiationWatts/m^2,SoftwareType,DateUTC
2013-08-20 00:01:00,53.4,48.7,30.16,SE,141,0.0,0.0,84,0.00,CLR,OVC,0.00,0.0,WeatherDisplay:10.37,2013-08-19 23:01:00,
2013-08-20 00:06:00,53.2,48.5,30.16,SE,141,0.0,0.0,84,0.00,CLR,OVC,0.00,0.0,WeatherDisplay:10.37,2013-08-19 23:06:00,
2013-08-20 00:11:00,53.0,48.6,30.16,SE,141,0.0,0.0,85,0.00,CLR,OVC,0.00,0.0,WeatherDisplay:10.37,2013-08-19 23:11:00,
2013-08-20 00:16:00,52.9,48.5,30.16,SE,141,0.0,0.0,85,0.00,CLR,OVC,0.00,0.0,WeatherDisplay:10.37,2013-08-19 23:16:00,
2013-08-20 00:21:00,52.8,48.4,30.16,SE,141,0.0,0.0,85,0.00,CLR,OVC,0.00,0.0,WeatherDisplay:10.37,2013-08-19 23:21:00,
2013-08-20 00:26:00,52.6,48.5,30.16,SE,141,0.0,0.0,86,0.00,CLR,OVC,0.00,0.0,WeatherDisplay:10.37,2013-08-19 23:26:00,
2013-08-20 00:31:00,52.4,48.3,30.16,SE,141,1.2,0.0,86,0.00,CLR,OVC,0.00,0.0,WeatherDisplay:10.37,2013-08-19 23:31:00,
2013-08-20 00:36:00,52.2,48.4,30.16,SE,134,1.2,0.0,87,0.00,CLR,OVC,0.00,0.0,WeatherDisplay:10.37,2013-08-19 23:36:00,
2013-08-20 00:41:00,52.5,48.7,30.16,SE,135,0.0,0.1,87,0.00,CLR,OVC,0.00,0.0,WeatherDisplay:10.37,2013-08-19 23:41:00,
2013-08-20 00:46:00,52.9,49.1,30.17,ESE,123,1.2,0.0,87,0.00,CLR,OVC,0.00,0.0,WeatherDisplay:10.37,2013-08-19 23:46:00,
2013-08-20 00:51:00,53.1,49.0,30.17,ESE,123,0.0,0.0,86,0.00,CLR,OVC,0.00,0.0,WeatherDisplay:10.37,2013-08-19 23:51:00,
2013-08-20 00:56:00,53.2,49.1,30.17,SE,129,1.2,1.2,86,0.00,CLR,OVC,0.00,0.0,WeatherDisplay:10.37,2013-08-19 23:56:00,
2013-08-20 01:01:00,53.4,49.3,30.17,SSE,150,0.0,0.0,86,0.00,CLR,OVC,0.00,0.0,WeatherDisplay:10.37,2013-08-20 00:01:00,
2013-08-20 01:06:00,53.6,49.5,30.17,SSW,203,0.0,0.0,86,0.00,CLR,OVC,0.00,0.0,WeatherDisplay:10.37,2013-08-20 00:06:00,
2013-08-20 01:11:00,53.7,49.6,30.17,West,263,3.5,3.5,86,0.00,CLR,OVC,0.00,0.0,WeatherDisplay:10.37,2013-08-20 00:11:00,
2013-08-20 01:16:00,53.9,49.8,30.17,SE,139,1.2,0.0,86,0.00,CLR,OVC,0.00,0.0,WeatherDisplay:10.37,2013-08-20 00:16:00,
2013-08-20 01:21:00,53.9,49.8,30.18,SE,138,2.0,2.0,86,0.00,CLR,OVC,0.00,0.0,WeatherDisplay:10.37,2013-08-20 00:21:00,
2013-08-20 01:26:00,53.9,49.8,30.18,SE,126,0.0,0.0,86,0.00,CLR,OVC,0.00,0.0,WeatherDisplay:10.37,2013-08-20 00:26:00,
2013-08-20 01:31:00,53.9,49.8,30.17,SE,125,0.0,0.0,86,0.00,CLR,OVC,0.00,0.0,WeatherDisplay:10.37,2013-08-20 00:31:00,
2013-08-20 01:36:00,53.8,49.7,30.18,SE,126,0.0,0.0,86,0.00,FEW,OVC,0.00,0.0,WeatherDisplay:10.37,2013-08-20 00:36:00,
2013-08-20 01:41:00,53.7,49.6,30.18,SE,125,0.0,0.0,86,0.00,FEW,OVC,0.00,0.0,WeatherDisplay:10.37,2013-08-20 00:41:00,
2013-08-20 01:46:00,53.6,49.5,30.18,SE,125,0.0,0.0,86,0.00,FEW,OVC,0.00,0.0,WeatherDisplay:10.37,2013-08-20 00:46:00,
2013-08-20 01:51:00,53.6,49.5,30.18,SE,126,0.0,0.0,86,0.00,FEW,OVC,0.00,0.0,WeatherDisplay:10.37,2013-08-20 00:51:00,
2013-08-20 01:56:00,53.6,49.5,30.18,SE,125,0.0,0.0,86,0.00,FEW,OVC,0.00,0.0,WeatherDisplay:10.37,2013-08-20 00:56:00,
2013-08-20 02:01:00,53.5,49.7,30.18,WSW,245,0.0,0.0,87,0.00,FEW,OVC,0.00,0.0,WeatherDisplay:10.37,2013-08-20 01:01:00,
2013-08-20 02:06:00,53.5,49.7,30.18,WSW,245,0.0,0.0,87,0.00,FEW,OVC,0.00,0.0,WeatherDisplay:10.37,2013-08-20 01:06:00,
2013-08-20 02:11:00,53.4,49.3,30.18,WSW,245,0.0,0.0,86,0.00,FEW,OVC,0.00,0.0,WeatherDisplay:10.37,2013-08-20 01:11:00,
2013-08-20 02:16:00,53.2,49.1,30.18,WSW,245,0.0,0.0,86,0.00,FEW,OVC,0.00,0.0,WeatherDisplay:10.37,2013-08-20 01:16:00,
2013-08-20 02:21:00,52.9,48.8,30.19,WSW,245,0.0,0.0,86,0.00,FEW,OVC,0.00,0.0,WeatherDisplay:10.37,2013-08-20 01:21:00,
2013-08-20 02:26:00,52.9,49.4,30.19,WSW,245,0.0,0.0,88,0.00,FEW,OVC,0.00,0.0,WeatherDisplay:10.37,2013-08-20 01:26:00,
2013-08-20 02:31:00,53.0,49.5,30.19,WSW,245,0.0,0.0,88,0.00,CLR,OVC,0.00,0.0,WeatherDisplay:10.37,2013-08-20 01:31:00,
2013-08-20 02:36:00,53.2,49.7,30.19,WSW,245,0.0,0.0,88,0.00,CLR,OVC,0.00,0.0,WeatherDisplay:10.37,2013-08-20 01:36:00,
2013-08-20 02:41:00,53.3,50.1,30.19,WSW,243,0.0,0.0,89,0.00,CLR,OVC,0.00,0.0,WeatherDisplay:10.37,2013-08-20 01:41:00,
2013-08-20 02:46:00,53.5,50.3,30.19,WSW,242,0.0,0.0,89,0.00,CLR,OVC,0.00,0.0,WeatherDisplay:10.37,2013-08-20 01:46:00,
2013-08-20 02:51:00,53.5,50.3,30.19,WSW,242,0.0,0.0,89,0.00,CLR,OVC,0.00,0.0,WeatherDisplay:10.37,2013-08-20 01:51:00,
2013-08-20 02:56:00,53.6,50.4,30.19,WSW,242,0.0,0.0,89,0.00,CLR,OVC,0.00,0.0,WeatherDisplay:10.37,2013-08-20 01:56:00,
2013-08-20 03:01:00,53.6,50.4,30.19,WSW,242,0.0,0.0,89,0.00,CLR,OVC,0.00,0.0,WeatherDisplay:10.37,2013-08-20 02:01:00,
2013-08-20 03:06:00,53.6,50.4,30.19,WSW,242,0.0,0.0,89,0.00,CLR,OVC,0.00,0.0,WeatherDisplay:10.37,2013-08-20 02:06:00,
2013-08-20 03:11:00,53.7,50.5,30.19,WSW,242,0.0,0.0,89,0.00,CLR,OVC,0.00,0.0,WeatherDisplay:10.37,2013-08-20 02:11:00,
2013-08-20 03:16:00,53.8,50.6,30.19,WSW,242,0.0,0.0,89,0.00,CLR,OVC,0.00,0.0,WeatherDisplay:10.37,2013-08-20 02:16:00,
2013-08-20 03:21:00,53.9,50.7,30.19,WSW,241,0.0,0.0,89,0.00,CLR,OVC,0.00,0.0,WeatherDisplay:10.37,2013-08-20 02:21:00,
2013-08-20 03:26:00,53.8,50.6,30.19,WSW,242,0.0,0.0,89,0.00,CLR,OVC,0.00,0.0,WeatherDisplay:10.37,2013-08-20 02:26:00,
2013-08-20 03:31:00,53.7,50.2,30.19,WSW,242,0.0,0.0,88,0.00,CLR,OVC,0.00,0.0,WeatherDisplay:10.37,2013-08-20 02:31:00,
2013-08-20 03:36:00,53.6,50.1,30.19,WSW,242,0.0,0.0,88,0.00,CLR,OVC,0.00,0.0,WeatherDisplay:10.37,2013-08-20 02:36:00,
2013-08-20 03:41:00,53.5,50.0,30.19,WSW,242,0.0,0.0,88,0.00,CLR,OVC,0.00,0.0,WeatherDisplay:10.37,2013-08-20 02:41:00,
2013-08-20 03:46:00,53.3,49.8,30.19,WSW,242,0.0,0.0,88,0.00,CLR,OVC,0.00,0.0,WeatherDisplay:10.37,2013-08-20 02:46:00,
2013-08-20 03:51:00,53.2,49.7,30.19,WSW,242,0.0,0.0,88,0.00,CLR,OVC,0.00,0.0,WeatherDisplay:10.37,2013-08-20 02:51:00,
2013-08-20 03:56:00,53.0,49.8,30.19,WSW,242,0.0,0.0,89,0.00,CLR,OVC,0.00,0.0,WeatherDisplay:10.37,2013-08-20 02:56:00,
2013-08-20 04:01:00,53.0,49.8,30.19,SE,125,0.0,0.0,89,0.00,CLR,OVC,0.00,0.0,WeatherDisplay:10.37,2013-08-20 03:01:00,
2013-08-20 04:06:00,53.0,49.8,30.19,SE,125,0.0,0.0,89,0.00,CLR,OVC,0.00,0.0,WeatherDisplay:10.37,2013-08-20 03:06:00,
2013-08-20 04:11:00,52.9,49.7,30.19,SE,125,0.0,0.0,89,0.00,CLR,OVC,0.00,0.0,WeatherDisplay:10.37,2013-08-20 03:11:00,
2013-08-20 04:16:00,52.9,49.7,30.19,SE,126,0.0,0.0,89,0.00,CLR,OVC,0.00,0.0,WeatherDisplay:10.37,2013-08-20 03:16:00,
2013-08-20 04:21:00,52.9,50.0,30.19,SE,125,0.0,0.0,90,0.00,CLR,OVC,0.00,0.0,WeatherDisplay:10.37,2013-08-20 03:21:00,
2013-08-20 04:26:00,52.9,50.0,30.19,SE,125,0.0,0.0,90,0.00,CLR,OVC,0.00,0.0,WeatherDisplay:10.37,2013-08-20 03:26:00,
2013-08-20 04:31:00,53.0,50.1,30.19,SE,125,0.0,0.0,90,0.00,BKN,OVC,0.00,0.0,WeatherDisplay:10.37,2013-08-20 03:31:00,
2013-08-20 04:36:00,53.0,50.1,30.19,SE,125,0.0,0.0,90,0.00,BKN,OVC,0.00,0.0,WeatherDisplay:10.37,2013-08-20 03:36:00,
2013-08-20 04:41:00,53.0,50.1,30.19,SE,126,0.0,0.0,90,0.00,BKN,OVC,0.00,0.0,WeatherDisplay:10.37,2013-08-20 03:41:00,
2013-08-20 04:46:00,53.1,50.2,30.19,SE,125,0.0,0.0,90,0.00,BKN,OVC,0.00,0.0,WeatherDisplay:10.37,2013-08-20 03:46:00,
2013-08-20 04:51:00,53.0,50.1,30.19,ESE,122,1.2,0.0,90,0.00,BKN,OVC,0.00,0.0,WeatherDisplay:10.37,2013-08-20 03:51:00,
2013-08-20 04:56:00,53.3,50.4,30.18,SE,127,1.2,1.2,90,0.00,BKN,OVC,0.00,0.0,WeatherDisplay:10.37,2013-08-20 03:56:00,
2013-08-20 05:01:00,53.5,50.6,30.18,SE,132,0.0,0.0,90,0.00,BKN,OVC,0.00,0.0,WeatherDisplay:10.37,2013-08-20 04:01:00,
2013-08-20 05:06:00,53.6,50.4,30.19,SE,132,0.0,0.0,89,0.00,OVC,,0.00,0.0,WeatherDisplay:10.37,2013-08-20 04:06:00,
2013-08-20 05:11:00,53.5,50.3,30.19,SE,132,0.0,0.0,89,0.00,OVC,,0.00,0.0,WeatherDisplay:10.37,2013-08-20 04:11:00,
2013-08-20 05:16:00,53.3,50.1,30.19,SE,133,0.0,0.0,89,0.00,OVC,,0.00,0.0,WeatherDisplay:10.37,2013-08-20 04:16:00,
2013-08-20 05:21:00,53.2,50.0,30.19,SE,132,0.0,0.0,89,0.00,OVC,,0.00,0.0,WeatherDisplay:10.37,2013-08-20 04:21:00,
2013-08-20 05:26:00,53.2,50.0,30.19,SE,133,0.0,0.0,89,0.00,OVC,,0.00,0.0,WeatherDisplay:10.37,2013-08-20 04:26:00,
2013-08-20 05:31:00,53.1,49.9,30.19,SE,132,0.0,0.0,89,0.00,SCT,OVC,0.00,0.0,WeatherDisplay:10.37,2013-08-20 04:31:00,
2013-08-20 05:36:00,53.1,50.2,30.19,SE,132,0.0,0.0,90,0.00,SCT,OVC,0.00,0.0,WeatherDisplay:10.37,2013-08-20 04:36:00,
2013-08-20 05:41:00,53.2,50.3,30.19,SE,132,0.0,0.0,90,0.00,SCT,OVC,0.00,0.0,WeatherDisplay:10.37,2013-08-20 04:41:00,
2013-08-20 05:46:00,53.3,50.4,30.20,SE,141,2.3,2.3,90,0.00,SCT,OVC,0.00,0.0,WeatherDisplay:10.37,2013-08-20 04:46:00,
2013-08-20 05:51:00,53.4,50.5,30.20,SE,141,1.2,0.0,90,0.00,SCT,OVC,0.00,0.0,WeatherDisplay:10.37,2013-08-20 04:51:00,
2013-08-20 05:56:00,53.6,50.7,30.20,SE,141,0.0,0.0,90,0.00,SCT,OVC,0.00,0.0,WeatherDisplay:10.37,2013-08-20 04:56:00,
2013-08-20 06:01:00,53.7,50.8,30.20,ESE,121,0.0,0.0,90,0.00,CLR,OVC,0.00,0.0,WeatherDisplay:10.37,2013-08-20 05:01:00,
2013-08-20 06:06:00,53.9,51.0,30.20,SE,143,0.0,0.0,90,0.00,CLR,OVC,0.00,0.0,WeatherDisplay:10.37,2013-08-20 05:06:00,
2013-08-20 06:11:00,54.0,51.1,30.20,SE,138,0.0,0.0,90,0.00,CLR,OVC,0.00,0.0,WeatherDisplay:10.37,2013-08-20 05:11:00,
2013-08-20 06:16:00,54.2,51.0,30.20,SE,138,1.2,1.2,89,0.00,OVC,,0.00,0.0,WeatherDisplay:10.37,2013-08-20 05:16:00,
2013-08-20 06:21:00,54.3,51.1,30.20,SE,136,0.0,0.0,89,0.00,OVC,,0.00,0.0,WeatherDisplay:10.37,2013-08-20 05:21:00,
2013-08-20 06:26:00,54.4,51.2,30.20,SSE,163,0.0,0.0,89,0.00,OVC,,0.00,0.0,WeatherDisplay:10.37,2013-08-20 05:26:00,
2013-08-20 06:31:00,54.5,51.3,30.20,SSE,154,0.0,0.0,89,0.00,FEW,OVC,0.00,0.0,WeatherDisplay:10.37,2013-08-20 05:31:00,
2013-08-20 06:36:00,54.7,51.5,30.20,SE,135,0.0,0.0,89,0.00,FEW,OVC,0.00,0.0,WeatherDisplay:10.37,2013-08-20 05:36:00,
2013-08-20 06:41:00,54.8,51.3,30.21,SE,135,0.0,0.0,88,0.00,FEW,OVC,0.00,0.0,WeatherDisplay:10.37,2013-08-20 05:41:00,
2013-08-20 06:46:00,54.9,51.4,30.21,SE,135,0.0,0.0,88,0.00,FEW,OVC,0.00,0.0,WeatherDisplay:10.37,2013-08-20 05:46:00,
2013-08-20 06:51:00,54.9,51.4,30.21,SE,136,0.0,0.0,88,0.00,FEW,OVC,0.00,0.0,WeatherDisplay:10.37,2013-08-20 05:51:00,
2013-08-20 06:56:00,55.0,51.5,30.21,SE,135,1.2,0.0,88,0.00,FEW,OVC,0.00,0.0,WeatherDisplay:10.37,2013-08-20 05:56:00,
2013-08-20 07:01:00,55.1,51.6,30.21,SE,136,0.0,0.0,88,0.00,SCT,OVC,0.00,0.0,WeatherDisplay:10.37,2013-08-20 06:01:00,
2013-08-20 07:06:00,55.2,51.7,30.21,SE,136,0.0,0.0,88,0.00,SCT,OVC,0.00,0.0,WeatherDisplay:10.37,2013-08-20 06:06:00,
2013-08-20 07:11:00,55.3,51.8,30.21,SE,135,0.0,0.0,88,0.00,SCT,OVC,0.00,0.0,WeatherDisplay:10.37,2013-08-20 06:11:00,
2013-08-20 07:16:00,55.3,51.8,30.22,SE,135,0.0,0.0,88,0.00,SCT,OVC,0.00,0.0,WeatherDisplay:10.37,2013-08-20 06:16:00,
2013-08-20 07:21:00,55.5,52.0,30.22,SE,135,0.0,0.0,88,0.00,SCT,OVC,0.00,0.0,WeatherDisplay:10.37,2013-08-20 06:21:00,
2013-08-20 07:26:00,55.5,52.0,30.22,SE,136,0.0,0.0,88,0.00,SCT,OVC,0.00,0.0,WeatherDisplay:10.37,2013-08-20 06:26:00,
2013-08-20 07:31:00,55.7,52.2,30.22,SE,135,0.0,0.0,88,0.00,BKN,OVC,0.00,0.0,WeatherDisplay:10.37,2013-08-20 06:31:00,
2013-08-20 07:36:00,55.7,52.2,30.22,SE,136,0.0,0.0,88,0.00,BKN,OVC,0.00,0.0,WeatherDisplay:10.37,2013-08-20 06:36:00,
2013-08-20 07:41:00,55.8,52.3,30.22,SSE,159,1.2,0.0,88,0.00,BKN,OVC,0.00,0.0,WeatherDisplay:10.37,2013-08-20 06:41:00,
2013-08-20 07:46:00,56.0,52.5,30.22,SSE,160,0.0,0.0,88,0.00,BKN,OVC,0.00,0.0,WeatherDisplay:10.37,2013-08-20 06:46:00,
2013-08-20 07:51:00,56.2,52.7,30.22,SE,130,0.0,0.0,88,0.00,BKN,OVC,0.00,0.0,WeatherDisplay:10.37,2013-08-20 06:51:00,
2013-08-20 07:56:00,56.4,52.9,30.22,SE,129,0.0,0.0,88,0.00,BKN,OVC,0.00,0.0,WeatherDisplay:10.37,2013-08-20 06:56:00,
2013-08-20 08:01:00,56.5,53.0,30.22,SE,131,0.0,0.0,88,0.00,OVC,,0.00,0.0,WeatherDisplay:10.37,2013-08-20 07:01:00,
2013-08-20 08:06:00,56.6,52.8,30.22,ESE,113,1.2,0.0,87,0.00,OVC,,0.00,0.0,WeatherDisplay:10.37,2013-08-20 07:06:00,
2013-08-20 08:11:00,56.7,52.9,30.22,ESE,113,1.2,0.0,87,0.00,OVC,,0.00,0.0,WeatherDisplay:10.37,2013-08-20 07:11:00,
2013-08-20 08:16:00,56.7,52.9,30.22,ESE,122,0.0,0.0,87,0.00,OVC,,0.00,0.0,WeatherDisplay:10.37,2013-08-20 07:16:00,
2013-08-20 08:21:00,56.8,53.0,30.22,ESE,121,0.0,0.0,87,0.00,OVC,,0.00,0.0,WeatherDisplay:10.37,2013-08-20 07:21:00,
2013-08-20 08:27:00,56.9,53.1,30.22,SSE,154,0.0,0.0,87,0.00,OVC,,0.00,0.0,WeatherDisplay:10.37,2013-08-20 07:27:00,
2013-08-20 08:31:00,56.9,53.1,30.22,SE,136,0.0,0.0,87,0.00,OVC,,0.00,0.0,WeatherDisplay:10.37,2013-08-20 07:31:00,
2013-08-20 08:37:00,57.1,53.3,30.23,ESE,121,0.0,0.0,87,0.00,OVC,,0.00,0.0,WeatherDisplay:10.37,2013-08-20 07:37:00,
2013-08-20 08:42:00,57.2,53.4,30.23,ESE,121,0.0,0.0,87,0.00,OVC,,0.00,0.0,WeatherDisplay:10.37,2013-08-20 07:42:00,
2013-08-20 08:47:00,57.5,53.7,30.23,ESE,122,0.0,0.0,87,0.00,OVC,,0.00,0.0,WeatherDisplay:10.37,2013-08-20 07:47:00,
2013-08-20 08:52:00,57.6,53.4,30.23,SE,129,1.2,1.2,86,0.00,OVC,,0.00,0.0,WeatherDisplay:10.37,2013-08-20 07:52:00,
2013-08-20 08:57:00,57.7,53.5,30.23,SE,130,0.0,0.0,86,0.00,OVC,,0.00,0.0,WeatherDisplay:10.37,2013-08-20 07:57:00,
2013-08-20 09:02:00,57.9,53.7,30.23,SE,130,0.0,0.0,86,0.00,OVC,,0.00,0.0,WeatherDisplay:10.37,2013-08-20 08:02:00,
2013-08-20 09:07:00,58.1,53.6,30.23,SE,130,1.2,0.0,85,0.00,OVC,,0.00,0.0,WeatherDisplay:10.37,2013-08-20 08:07:00,
2013-08-20 09:12:00,58.3,53.8,30.23,ESE,110,2.3,2.3,85,0.00,OVC,,0.00,0.0,WeatherDisplay:10.37,2013-08-20 08:12:00,
2013-08-20 09:17:00,58.6,54.1,30.23,ESE,109,1.2,1.2,85,0.00,OVC,,0.00,0.0,WeatherDisplay:10.37,2013-08-20 08:17:00,
2013-08-20 09:22:00,58.9,54.4,30.23,SE,131,1.2,1.2,85,0.00,OVC,,0.00,0.0,WeatherDisplay:10.37,2013-08-20 08:22:00,
2013-08-20 09:27:00,59.1,53.6,30.23,SSW,199,0.0,0.0,82,0.00,OVC,,0.00,0.0,WeatherDisplay:10.37,2013-08-20 08:27:00,
2013-08-20 09:32:00,59.3,53.8,30.23,SSE,150,0.0,0.0,82,0.00,OVC,,0.00,0.0,WeatherDisplay:10.37,2013-08-20 08:32:00,
2013-08-20 09:37:00,59.4,53.9,30.23,SE,124,1.2,1.2,82,0.00,OVC,,0.00,0.0,WeatherDisplay:10.37,2013-08-20 08:37:00,
2013-08-20 09:42:00,59.4,53.9,30.23,ESE,120,3.5,3.5,82,0.00,OVC,,0.00,0.0,WeatherDisplay:10.37,2013-08-20 08:42:00,
2013-08-20 09:47:00,59.2,53.7,30.23,ESE,105,2.3,2.3,82,0.00,OVC,,0.00,0.0,WeatherDisplay:10.37,2013-08-20 08:47:00,
2013-08-20 09:52:00,59.1,53.6,30.23,ESE,119,1.2,1.2,82,0.00,OVC,,0.00,0.0,WeatherDisplay:10.37,2013-08-20 08:52:00,
2013-08-20 09:55:00,59.2,53.7,30.23,ESE,118,0.0,3.0,82,0.00,OVC,OVC,0.00,0.0,WeatherDisplay:10.37,2013-08-20 08:55:00,
2013-08-20 10:01:00,59.5,54.0,30.23,SSE,150,3.5,3.5,82,0.00,OVC,,0.00,0.0,WeatherDisplay:10.37,2013-08-20 09:01:00,
2013-08-20 10:06:00,59.7,54.2,30.23,ENE,63,5.0,5.0,82,0.00,OVC,,0.00,0.0,WeatherDisplay:10.37,2013-08-20 09:06:00,
2013-08-20 10:11:00,59.7,53.9,30.23,South,169,3.5,3.5,81,0.00,OVC,,0.00,0.0,WeatherDisplay:10.37,2013-08-20 09:11:00,
2013-08-20 10:16:00,59.9,54.1,30.23,SE,135,1.2,1.2,81,0.00,BKN,OVC,0.00,0.0,WeatherDisplay:10.37,2013-08-20 09:16:00,
2013-08-20 10:21:00,60.3,54.1,30.23,SE,134,2.0,2.0,80,0.00,BKN,OVC,0.00,0.0,WeatherDisplay:10.37,2013-08-20 09:21:00,
2013-08-20 10:27:00,60.7,54.1,30.23,SE,141,3.0,3.0,79,0.00,BKN,OVC,0.00,0.0,WeatherDisplay:10.37,2013-08-20 09:27:00,
2013-08-20 10:32:00,60.8,53.5,30.23,ESE,115,2.3,2.3,77,0.00,BKN,OVC,0.00,0.0,WeatherDisplay:10.37,2013-08-20 09:32:00,
2013-08-20 10:37:00,60.8,53.5,30.23,East,99,3.5,3.5,77,0.00,BKN,OVC,0.00,0.0,WeatherDisplay:10.37,2013-08-20 09:37:00,
2013-08-20 10:42:00,60.9,53.6,30.23,SSE,149,5.8,5.8,77,0.00,BKN,OVC,0.00,0.0,WeatherDisplay:10.37,2013-08-20 09:42:00,
2013-08-20 10:47:00,61.2,54.3,30.24,SE,133,1.2,1.2,78,0.00,BKN,OVC,0.00,0.0,WeatherDisplay:10.37,2013-08-20 09:47:00,
2013-08-20 10:52:00,61.4,54.1,30.24,SE,128,2.3,2.3,77,0.00,BKN,OVC,0.00,0.0,WeatherDisplay:10.37,2013-08-20 09:52:00,
2013-08-20 10:57:00,61.7,54.1,30.23,West,274,2.3,2.3,76,0.00,BKN,OVC,0.00,0.0,WeatherDisplay:10.37,2013-08-20 09:57:00,
2013-08-20 11:02:00,62.1,54.1,30.23,NNE,33,1.2,1.2,75,0.00,SCT,OVC,0.00,0.0,WeatherDisplay:10.37,2013-08-20 10:02:00,
2013-08-20 11:07:00,62.6,54.2,30.23,ESE,112,1.2,1.2,74,0.00,SCT,OVC,0.00,0.0,WeatherDisplay:10.37,2013-08-20 10:07:00,
2013-08-20 11:12:00,62.8,54.0,30.23,NNW,332,1.2,1.2,73,0.00,SCT,OVC,0.00,0.0,WeatherDisplay:10.37,2013-08-20 10:12:00,
2013-08-20 11:17:00,63.1,54.3,30.23,South,169,1.2,0.0,73,0.00,SCT,OVC,0.00,0.0,WeatherDisplay:10.37,2013-08-20 10:17:00,
2013-08-20 11:22:00,63.5,54.7,30.23,SE,145,1.2,1.2,73,0.00,SCT,OVC,0.00,0.0,WeatherDisplay:10.37,2013-08-20 10:22:00,
2013-08-20 11:27:00,64.1,54.9,30.23,West,276,0.0,0.0,72,0.00,SCT,OVC,0.00,0.0,WeatherDisplay:10.37,2013-08-20 10:27:00,
2013-08-20 11:32:00,64.5,54.5,30.23,NW,304,1.2,0.0,70,0.00,SCT,OVC,0.00,0.0,WeatherDisplay:10.37,2013-08-20 10:32:00,
2013-08-20 11:37:00,64.6,54.6,30.23,NNE,33,1.0,0.0,70,0.00,SCT,OVC,0.00,0.0,WeatherDisplay:10.37,2013-08-20 10:37:00,
2013-08-20 11:42:00,64.7,54.3,30.23,SE,128,1.2,1.2,69,0.00,SCT,OVC,0.00,0.0,WeatherDisplay:10.37,2013-08-20 10:42:00,
2013-08-20 11:47:00,64.5,54.5,30.23,NW,307,1.2,1.2,70,0.00,SCT,OVC,0.00,0.0,WeatherDisplay:10.37,2013-08-20 10:47:00,
2013-08-20 11:52:00,64.3,54.3,30.23,NW,318,1.2,1.2,70,0.00,SCT,OVC,0.00,0.0,WeatherDisplay:10.37,2013-08-20 10:52:00,
2013-08-20 11:57:00,64.3,54.7,30.23,NW,311,1.0,0.0,71,0.00,SCT,OVC,0.00,0.0,WeatherDisplay:10.37,2013-08-20 10:57:00,
2013-08-20 12:02:00,64.2,54.6,30.23,NW,325,1.2,1.2,71,0.00,SCT,OVC,0.00,0.0,WeatherDisplay:10.37,2013-08-20 11:02:00,
2013-08-20 12:07:00,64.1,54.5,30.23,WNW,302,1.2,1.2,71,0.00,SCT,OVC,0.00,0.0,WeatherDisplay:10.37,2013-08-20 11:07:00,
2013-08-20 12:12:00,64.6,55.0,30.22,NW,322,2.3,2.3,71,0.00,SCT,OVC,0.00,0.0,WeatherDisplay:10.37,2013-08-20 11:12:00,
2013-08-20 12:17:00,66.1,56.4,30.22,SE,142,3.5,3.5,71,0.00,SCT,OVC,0.00,0.0,WeatherDisplay:10.37,2013-08-20 11:17:00,
2013-08-20 12:22:00,66.8,55.5,30.22,SE,136,3.5,3.5,67,0.00,SCT,OVC,0.00,0.0,WeatherDisplay:10.37,2013-08-20 11:22:00,
2013-08-20 12:27:00,67.0,55.7,30.22,East,94,4.6,4.6,67,0.00,SCT,OVC,0.00,0.0,WeatherDisplay:10.37,2013-08-20 11:27:00,
2013-08-20 12:32:00,66.3,55.8,30.22,SE,129,4.6,4.6,69,0.00,BKN,OVC,0.00,0.0,WeatherDisplay:10.37,2013-08-20 11:32:00,
2013-08-20 12:37:00,66.1,55.2,30.23,SE,131,4.6,4.6,68,0.00,BKN,OVC,0.00,0.0,WeatherDisplay:10.37,2013-08-20 11:37:00,
2013-08-20 12:42:00,65.7,55.2,30.23,South,190,3.5,3.5,69,0.00,BKN,OVC,0.00,0.0,WeatherDisplay:10.37,2013-08-20 11:42:00,
2013-08-20 12:47:00,65.6,55.2,30.23,ESE,122,3.5,3.5,69,0.00,BKN,OVC,0.00,0.0,WeatherDisplay:10.37,2013-08-20 11:47:00,
2013-08-20 12:52:00,65.3,54.9,30.23,SE,134,5.8,5.8,69,0.00,BKN,OVC,0.00,0.0,WeatherDisplay:10.37,2013-08-20 11:52:00,
2013-08-20 12:57:00,65.0,55.0,30.23,East,97,3.5,3.5,70,0.00,BKN,OVC,0.00,0.0,WeatherDisplay:10.37,2013-08-20 11:57:00,
2013-08-20 13:02:00,64.9,54.9,30.23,SE,127,4.6,4.6,70,0.00,BKN,OVC,0.00,0.0,WeatherDisplay:10.37,2013-08-20 12:02:00,
2013-08-20 13:07:00,65.0,55.4,30.23,SE,129,3.5,3.5,71,0.00,BKN,OVC,0.00,0.0,WeatherDisplay:10.37,2013-08-20 12:07:00,
2013-08-20 13:12:00,65.6,55.9,30.23,East,89,1.2,1.2,71,0.00,BKN,OVC,0.00,0.0,WeatherDisplay:10.37,2013-08-20 12:12:00,
2013-08-20 13:17:00,66.0,55.1,30.23,SE,138,4.6,4.6,68,0.00,BKN,OVC,0.00,0.0,WeatherDisplay:10.37,2013-08-20 12:17:00,
2013-08-20 13:22:00,65.9,55.0,30.23,SSE,163,3.5,3.5,68,0.00,BKN,OVC,0.00,0.0,WeatherDisplay:10.37,2013-08-20 12:22:00,
2013-08-20 13:27:00,65.3,54.9,30.23,West,279,3.5,3.5,69,0.00,BKN,OVC,0.00,0.0,WeatherDisplay:10.37,2013-08-20 12:27:00,
2013-08-20 13:32:00,64.9,55.3,30.23,SE,139,3.5,3.5,71,0.00,BKN,OVC,0.00,0.0,WeatherDisplay:10.37,2013-08-20 12:32:00,
2013-08-20 13:37:00,64.6,55.4,30.23,SE,129,3.5,3.5,72,0.00,BKN,OVC,0.00,0.0,WeatherDisplay:10.37,2013-08-20 12:37:00,
2013-08-20 13:42:00,64.7,55.8,30.23,ESE,105,1.2,1.2,73,0.00,BKN,OVC,0.00,0.0,WeatherDisplay:10.37,2013-08-20 12:42:00,
2013-08-20 13:47:00,64.9,55.7,30.23,SE,127,1.2,1.2,72,0.00,BKN,OVC,0.00,0.0,WeatherDisplay:10.37,2013-08-20 12:47:00,
2013-08-20 13:52:00,65.2,55.9,30.23,East,90,3.5,3.5,72,0.00,BKN,OVC,0.00,0.0,WeatherDisplay:10.37,2013-08-20 12:52:00,
2013-08-20 13:57:00,65.4,55.7,30.23,ESE,111,2.0,2.0,71,0.00,BKN,OVC,0.00,0.0,WeatherDisplay:10.37,2013-08-20 12:57:00,
2013-08-20 14:02:00,65.6,56.3,30.23,ESE,112,4.0,4.0,72,0.00,BKN,OVC,0.00,0.0,WeatherDisplay:10.37,2013-08-20 13:02:00,
2013-08-20 14:07:00,65.6,56.3,30.23,SE,134,3.0,3.0,72,0.00,BKN,OVC,0.00,0.0,WeatherDisplay:10.37,2013-08-20 13:07:00,
2013-08-20 14:12:00,66.0,56.3,30.22,SE,127,1.2,1.2,71,0.00,BKN,OVC,0.00,0.0,WeatherDisplay:10.37,2013-08-20 13:12:00,
2013-08-20 14:17:00,66.4,56.3,30.22,NW,321,1.2,1.2,70,0.00,BKN,OVC,0.00,0.0,WeatherDisplay:10.37,2013-08-20 13:17:00,
2013-08-20 14:22:00,66.5,56.0,30.22,ESE,105,4.6,4.6,69,0.00,BKN,OVC,0.00,0.0,WeatherDisplay:10.37,2013-08-20 13:22:00,
2013-08-20 14:27:00,66.7,55.8,30.22,NW,311,0.0,0.0,68,0.00,BKN,OVC,0.00,0.0,WeatherDisplay:10.37,2013-08-20 13:27:00,
2013-08-20 14:32:00,67.1,56.2,30.22,North,353,1.2,0.0,68,0.00,BKN,OVC,0.00,0.0,WeatherDisplay:10.37,2013-08-20 13:32:00,
2013-08-20 14:37:00,67.5,56.6,30.22,SSE,153,5.8,5.8,68,0.00,BKN,OVC,0.00,0.0,WeatherDisplay:10.37,2013-08-20 13:37:00,
2013-08-20 14:42:00,68.0,56.6,30.22,South,176,3.5,3.5,67,0.00,BKN,OVC,0.00,0.0,WeatherDisplay:10.37,2013-08-20 13:42:00,
2013-08-20 14:47:00,67.9,54.8,30.22,SW,219,3.5,3.5,63,0.00,BKN,OVC,0.00,0.0,WeatherDisplay:10.37,2013-08-20 13:47:00,
2013-08-20 14:52:00,67.9,56.1,30.21,SE,129,1.2,1.2,66,0.00,BKN,OVC,0.00,0.0,WeatherDisplay:10.37,2013-08-20 13:52:00,
2013-08-20 14:57:00,67.9,56.1,30.21,SE,128,1.2,1.2,66,0.00,BKN,OVC,0.00,0.0,WeatherDisplay:10.37,2013-08-20 13:57:00,
2013-08-20 15:02:00,67.7,55.9,30.21,South,190,4.6,4.6,66,0.00,BKN,OVC,0.00,0.0,WeatherDisplay:10.37,2013-08-20 14:02:00,
2013-08-20 15:07:00,67.6,56.2,30.21,ESE,115,2.3,2.3,67,0.00,BKN,OVC,0.00,0.0,WeatherDisplay:10.37,2013-08-20 14:07:00,
2013-08-20 15:12:00,67.7,55.9,30.21,West,273,1.2,1.2,66,0.00,BKN,OVC,0.00,0.0,WeatherDisplay:10.37,2013-08-20 14:12:00,
2013-08-20 15:17:00,68.0,55.8,30.21,SE,132,4.6,4.6,65,0.00,BKN,OVC,0.00,0.0,WeatherDisplay:10.37,2013-08-20 14:17:00,
2013-08-20 15:22:00,67.9,55.7,30.21,South,169,0.0,0.0,65,0.00,BKN,OVC,0.00,0.0,WeatherDisplay:10.37,2013-08-20 14:22:00,
2013-08-20 15:27:00,68.0,55.8,30.21,SSW,204,2.3,2.3,65,0.00,BKN,OVC,0.00,0.0,WeatherDisplay:10.37,2013-08-20 14:27:00,
2013-08-20 15:32:00,67.8,55.2,30.21,SE,136,3.5,3.5,64,0.00,SCT,OVC,0.00,0.0,WeatherDisplay:10.37,2013-08-20 14:32:00,
2013-08-20 15:37:00,67.2,54.6,30.21,ESE,117,4.6,4.6,64,0.00,SCT,OVC,0.00,0.0,WeatherDisplay:10.37,2013-08-20 14:37:00,
2013-08-20 15:42:00,66.8,55.1,30.21,South,177,2.3,2.3,66,0.00,SCT,OVC,0.00,0.0,WeatherDisplay:10.37,2013-08-20 14:42:00,
2013-08-20 15:47:00,66.7,54.6,30.21,SE,127,2.3,2.3,65,0.00,SCT,OVC,0.00,0.0,WeatherDisplay:10.37,2013-08-20 14:47:00,
2013-08-20 15:52:00,66.6,54.9,30.21,East,90,0.0,0.1,66,0.00,SCT,OVC,0.00,0.0,WeatherDisplay:10.37,2013-08-20 14:52:00,
2013-08-20 15:57:00,66.6,55.3,30.21,SE,131,4.6,4.6,67,0.00,SCT,OVC,0.00,0.0,WeatherDisplay:10.37,2013-08-20 14:57:00,
2013-08-20 16:02:00,66.6,55.7,30.20,SSE,157,2.3,2.3,68,0.00,SCT,OVC,0.00,0.0,WeatherDisplay:10.37,2013-08-20 15:02:00,
2013-08-20 16:07:00,66.7,55.8,30.20,SE,133,1.2,0.0,68,0.00,SCT,OVC,0.00,0.0,WeatherDisplay:10.37,2013-08-20 15:07:00,
2013-08-20 16:12:00,66.7,55.4,30.20,ESE,114,1.2,1.2,67,0.00,SCT,OVC,0.00,0.0,WeatherDisplay:10.37,2013-08-20 15:12:00,
2013-08-20 16:17:00,66.7,55.0,30.20,ENE,57,1.2,1.2,66,0.00,SCT,OVC,0.00,0.0,WeatherDisplay:10.37,2013-08-20 15:17:00,
2013-08-20 16:22:00,66.7,55.0,30.20,ESE,109,2.3,2.3,66,0.00,SCT,OVC,0.00,0.0,WeatherDisplay:10.37,2013-08-20 15:22:00,
2013-08-20 16:27:00,66.7,54.6,30.20,SE,124,2.3,2.3,65,0.00,SCT,OVC,0.00,0.0,WeatherDisplay:10.37,2013-08-20 15:27:00,
2013-08-20 16:32:00,66.6,54.5,30.20,SE,136,3.5,3.5,65,0.00,SCT,OVC,0.00,0.0,WeatherDisplay:10.37,2013-08-20 15:32:00,
2013-08-20 16:37:00,66.4,55.1,30.20,SSE,158,2.3,2.3,67,0.00,SCT,OVC,0.00,0.0,WeatherDisplay:10.37,2013-08-20 15:37:00,
2013-08-20 16:42:00,66.2,54.9,30.19,SSW,207,2.3,2.3,67,0.00,SCT,OVC,0.00,0.0,WeatherDisplay:10.37,2013-08-20 15:42:00,
2013-08-20 16:47:00,66.0,54.7,30.20,SSW,204,3.5,3.5,67,0.00,SCT,OVC,0.00,0.0,WeatherDisplay:10.37,2013-08-20 15:47:00,
2013-08-20 16:53:00,65.8,54.5,30.20,NNE,19,3.5,3.5,67,0.00,SCT,OVC,0.00,0.0,WeatherDisplay:10.37,2013-08-20 15:53:00,
2013-08-20 16:58:00,65.8,54.5,30.20,South,185,1.2,1.6,67,0.00,SCT,OVC,0.00,0.0,WeatherDisplay:10.37,2013-08-20 15:58:00,
2013-08-20 17:03:00,65.8,54.9,30.19,NW,304,3.5,3.5,68,0.00,SCT,OVC,0.00,0.0,WeatherDisplay:10.37,2013-08-20 16:03:00,
2013-08-20 17:08:00,65.7,55.2,30.19,SE,140,3.0,3.0,69,0.00,SCT,OVC,0.00,0.0,WeatherDisplay:10.37,2013-08-20 16:08:00,
2013-08-20 17:13:00,65.4,55.0,30.20,ENE,63,4.6,4.6,69,0.00,SCT,OVC,0.00,0.0,WeatherDisplay:10.37,2013-08-20 16:13:00,
2013-08-20 17:18:00,65.1,54.7,30.20,East,82,2.3,2.3,69,0.00,SCT,OVC,0.00,0.0,WeatherDisplay:10.37,2013-08-20 16:18:00,
2013-08-20 17:23:00,64.9,54.5,30.19,East,83,4.6,4.6,69,0.00,SCT,OVC,0.00,0.0,WeatherDisplay:10.37,2013-08-20 16:23:00,
2013-08-20 17:28:00,64.8,54.8,30.19,SE,127,3.5,3.5,70,0.00,SCT,OVC,0.00,0.0,WeatherDisplay:10.37,2013-08-20 16:28:00,
2013-08-20 17:33:00,64.6,55.4,30.19,ESE,107,3.0,3.0,72,0.00,SCT,OVC,0.00,0.0,WeatherDisplay:10.37,2013-08-20 16:33:00,
2013-08-20 17:38:00,64.3,55.8,30.19,SSE,148,0.0,0.0,74,0.00,SCT,OVC,0.00,0.0,WeatherDisplay:10.37,2013-08-20 16:38:00,
2013-08-20 17:43:00,64.0,56.3,30.19,SE,128,1.2,1.2,76,0.00,SCT,OVC,0.00,0.0,WeatherDisplay:10.37,2013-08-20 16:43:00,
2013-08-20 17:48:00,63.7,56.4,30.19,SE,131,1.2,0.0,77,0.00,SCT,OVC,0.00,0.0,WeatherDisplay:10.37,2013-08-20 16:48:00,
2013-08-20 17:53:00,63.4,56.4,30.19,ESE,115,0.0,0.0,78,0.00,SCT,OVC,0.00,0.0,WeatherDisplay:10.37,2013-08-20 16:53:00,
2013-08-20 17:58:00,63.4,56.8,30.19,ESE,116,0.0,0.0,79,0.00,SCT,OVC,0.00,0.0,WeatherDisplay:10.37,2013-08-20 16:58:00,
2013-08-20 18:03:00,63.3,57.0,30.19,ESE,116,0.0,0.0,80,0.00,-RA,OVC,0.00,0.0,WeatherDisplay:10.37,2013-08-20 17:03:00,
2013-08-20 18:08:00,63.3,57.4,30.19,ESE,120,0.0,0.0,81,0.00,-RA,OVC,0.00,0.0,WeatherDisplay:10.37,2013-08-20 17:08:00,
2013-08-20 18:13:00,63.1,57.2,30.19,ESE,120,0.0,0.0,81,0.00,-RA,OVC,0.00,0.0,WeatherDisplay:10.37,2013-08-20 17:13:00,
2013-08-20 18:18:00,62.9,57.3,30.19,ESE,120,0.0,0.0,82,0.01,-RA,OVC,0.01,0.0,WeatherDisplay:10.37,2013-08-20 17:18:00,
2013-08-20 18:23:00,62.8,57.2,30.19,ESE,120,0.0,0.0,82,0.01,-RA,OVC,0.01,0.0,WeatherDisplay:10.37,2013-08-20 17:23:00,
2013-08-20 18:28:00,62.7,57.5,30.19,ESE,120,0.0,0.0,83,0.02,-RA,OVC,0.02,0.0,WeatherDisplay:10.37,2013-08-20 17:28:00,
2013-08-20 18:33:00,62.5,57.3,30.19,ESE,120,0.0,0.0,83,0.02,-RA,OVC,0.02,0.0,WeatherDisplay:10.37,2013-08-20 17:33:00,
2013-08-20 18:38:00,62.3,57.1,30.19,ESE,120,0.0,0.0,83,0.02,-RA,OVC,0.02,0.0,WeatherDisplay:10.37,2013-08-20 17:38:00,
2013-08-20 18:43:00,62.1,57.2,30.19,ESE,120,0.0,0.0,84,0.02,-RA,OVC,0.02,0.0,WeatherDisplay:10.37,2013-08-20 17:43:00,
2013-08-20 18:48:00,61.8,57.2,30.19,ESE,120,0.0,0.0,85,0.03,-RA,OVC,0.03,0.0,WeatherDisplay:10.37,2013-08-20 17:48:00,
2013-08-20 18:53:00,61.6,57.0,30.19,ESE,120,0.0,0.0,85,0.03,-RA,OVC,0.03,0.0,WeatherDisplay:10.37,2013-08-20 17:53:00,
2013-08-20 18:58:00,61.3,57.1,30.19,ESE,120,0.0,0.0,86,0.04,-RA,OVC,0.04,0.0,WeatherDisplay:10.37,2013-08-20 17:58:00,
2013-08-20 19:03:00,61.1,56.9,30.19,ESE,120,0.0,0.0,86,0.05,-RA,OVC,0.05,0.0,WeatherDisplay:10.37,2013-08-20 18:03:00,
2013-08-20 19:08:00,61.0,57.1,30.19,ESE,120,0.0,0.0,87,0.06,-RA,OVC,0.06,0.0,WeatherDisplay:10.37,2013-08-20 18:08:00,
2013-08-20 19:13:00,60.8,56.9,30.19,ESE,120,0.0,0.0,87,0.06,-RA,OVC,0.07,0.0,WeatherDisplay:10.37,2013-08-20 18:13:00,
2013-08-20 19:19:00,60.5,56.6,30.20,SE,140,2.0,2.0,87,0.06,-RA,OVC,0.07,0.0,WeatherDisplay:10.37,2013-08-20 18:19:00,
2013-08-20 19:24:00,60.2,56.6,30.19,SE,130,1.2,0.0,88,0.07,-RA,OVC,0.08,0.0,WeatherDisplay:10.37,2013-08-20 18:24:00,
2013-08-20 19:29:00,60.1,56.5,30.19,SE,130,0.0,0.0,88,0.06,-RA,OVC,0.08,0.0,WeatherDisplay:10.37,2013-08-20 18:29:00,
2013-08-20 19:34:00,60.0,56.4,30.19,SE,141,1.2,0.0,88,0.07,-RA,OVC,0.09,0.0,WeatherDisplay:10.37,2013-08-20 18:34:00,
2013-08-20 19:39:00,59.9,56.6,30.19,SE,141,0.0,0.0,89,0.06,-RA,OVC,0.09,0.0,WeatherDisplay:10.37,2013-08-20 18:39:00,
2013-08-20 19:44:00,59.8,56.6,30.20,SE,141,0.0,0.0,89,0.06,-RA,OVC,0.09,0.0,WeatherDisplay:10.37,2013-08-20 18:44:00,
2013-08-20 19:49:00,59.9,56.6,30.19,SE,141,0.0,0.0,89,0.06,-RA,OVC,0.09,0.0,WeatherDisplay:10.37,2013-08-20 18:49:00,
2013-08-20 19:54:00,59.8,56.9,30.19,SE,141,0.0,0.0,90,0.06,-RA,OVC,0.09,0.0,WeatherDisplay:10.37,2013-08-20 18:54:00,
2013-08-20 19:59:00,59.7,56.8,30.19,SE,141,0.0,0.0,90,0.05,-RA,OVC,0.09,0.0,WeatherDisplay:10.37,2013-08-20 18:59:00,
2013-08-20 20:04:00,59.6,56.7,30.19,SE,141,0.0,0.0,90,0.04,-RA,OVC,0.09,0.0,WeatherDisplay:10.37,2013-08-20 19:04:00,
2013-08-20 20:09:00,59.6,56.7,30.19,SE,141,0.0,0.0,90,0.02,-RA,OVC,0.09,0.0,WeatherDisplay:10.37,2013-08-20 19:09:00,
2013-08-20 20:14:00,59.6,57.0,30.19,SE,141,0.0,0.0,91,0.02,-RA,OVC,0.09,0.0,WeatherDisplay:10.37,2013-08-20 19:14:00,
2013-08-20 20:19:00,59.5,56.9,30.19,SE,141,0.0,0.0,91,0.02,-RA,OVC,0.09,0.0,WeatherDisplay:10.37,2013-08-20 19:19:00,
2013-08-20 20:24:00,59.5,56.9,30.19,SE,141,0.0,0.0,91,0.02,-RA,OVC,0.09,0.0,WeatherDisplay:10.37,2013-08-20 19:24:00,
2013-08-20 20:29:00,59.4,56.8,30.19,SE,141,0.0,0.0,91,0.02,-RA,OVC,0.09,0.0,WeatherDisplay:10.37,2013-08-20 19:29:00,
2013-08-20 20:34:00,59.4,56.8,30.19,SSW,197,0.0,0.0,91,0.01,-RA,OVC,0.09,0.0,WeatherDisplay:10.37,2013-08-20 19:34:00,
2013-08-20 20:39:00,59.3,56.7,30.19,SSW,198,0.0,0.0,91,0.01,-RA,OVC,0.09,0.0,WeatherDisplay:10.37,2013-08-20 19:39:00,
2013-08-20 20:44:00,59.2,56.9,30.19,SSW,195,0.0,0.0,92,0.01,-RA,OVC,0.09,0.0,WeatherDisplay:10.37,2013-08-20 19:44:00,
2013-08-20 20:49:00,59.2,56.9,30.18,SSW,192,0.0,0.0,92,0.01,-RA,OVC,0.09,0.0,WeatherDisplay:10.37,2013-08-20 19:49:00,
2013-08-20 20:54:00,59.0,56.7,30.18,SE,139,0.0,0.0,92,0.01,-RA,OVC,0.09,0.0,WeatherDisplay:10.37,2013-08-20 19:54:00,
2013-08-20 20:59:00,58.9,56.6,30.18,SE,125,0.0,0.0,92,0.01,-RA,OVC,0.09,0.0,WeatherDisplay:10.37,2013-08-20 19:59:00,
2013-08-20 21:04:00,58.8,56.5,30.18,SE,141,0.0,0.0,92,0.01,-RA,OVC,0.09,0.0,WeatherDisplay:10.37,2013-08-20 20:04:00,
2013-08-20 21:09:00,58.7,56.4,30.18,SE,141,0.0,0.0,92,0.01,-RA,OVC,0.09,0.0,WeatherDisplay:10.37,2013-08-20 20:09:00,
2013-08-20 21:14:00,58.6,56.3,30.18,East,99,0.0,0.0,92,0.01,-RA,OVC,0.09,0.0,WeatherDisplay:10.37,2013-08-20 20:14:00,
2013-08-20 21:19:00,58.6,56.3,30.18,SE,129,1.2,0.0,92,0.00,-RA,OVC,0.09,0.0,WeatherDisplay:10.37,2013-08-20 20:19:00,
2013-08-20 21:24:00,58.6,56.3,30.18,ESE,114,0.0,0.0,92,0.00,-RA,OVC,0.09,0.0,WeatherDisplay:10.37,2013-08-20 20:24:00,
2013-08-20 21:29:00,58.6,56.3,30.18,South,173,0.0,0.0,92,0.00,-RA,OVC,0.09,0.0,WeatherDisplay:10.37,2013-08-20 20:29:00,
2013-08-20 21:34:00,58.6,56.3,30.18,South,174,0.0,0.0,92,0.00,-RA,OVC,0.09,0.0,WeatherDisplay:10.37,2013-08-20 20:34:00,
2013-08-20 21:39:00,58.6,56.3,30.18,South,183,0.0,0.0,92,0.00,-RA,OVC,0.09,0.0,WeatherDisplay:10.37,2013-08-20 20:39:00,
2013-08-20 21:44:00,58.6,56.3,30.18,SSW,204,0.0,0.0,92,0.00,-RA,OVC,0.09,0.0,WeatherDisplay:10.37,2013-08-20 20:44:00,
2013-08-20 21:49:00,58.5,56.2,30.17,SW,236,0.0,0.0,92,0.00,-RA,OVC,0.09,0.0,WeatherDisplay:10.37,2013-08-20 20:49:00,
2013-08-20 21:54:00,58.5,56.2,30.17,SW,217,0.0,0.0,92,0.00,-RA,OVC,0.09,0.0,WeatherDisplay:10.37,2013-08-20 20:54:00,
2013-08-20 21:59:00,58.5,56.2,30.17,SW,219,0.0,0.0,92,0.00,-RA,OVC,0.09,0.0,WeatherDisplay:10.37,2013-08-20 20:59:00,
2013-08-20 22:04:00,58.4,56.1,30.17,SW,221,0.0,0.0,92,0.00,-RA,OVC,0.09,0.0,WeatherDisplay:10.37,2013-08-20 21:04:00,
2013-08-20 22:09:00,58.4,56.1,30.17,SW,219,0.0,0.0,92,0.00,-RA,OVC,0.09,0.0,WeatherDisplay:10.37,2013-08-20 21:09:00,
2013-08-20 22:14:00,58.4,56.1,30.17,SW,219,0.0,0.0,92,0.00,-RA,OVC,0.09,0.0,WeatherDisplay:10.37,2013-08-20 21:14:00,
2013-08-20 22:19:00,58.4,56.1,30.16,SW,219,0.0,0.0,92,0.00,-RA,OVC,0.09,0.0,WeatherDisplay:10.37,2013-08-20 21:19:00,
2013-08-20 22:24:00,58.4,56.1,30.16,SW,221,1.2,0.0,92,0.00,-RA,OVC,0.09,0.0,WeatherDisplay:10.37,2013-08-20 21:24:00,
2013-08-20 22:29:00,58.3,56.0,30.16,SW,228,0.0,0.0,92,0.00,-RA,OVC,0.09,0.0,WeatherDisplay:10.37,2013-08-20 21:29:00,
2013-08-20 22:34:00,58.3,56.0,30.16,West,259,0.0,0.0,92,0.00,-RA,OVC,0.09,0.0,WeatherDisplay:10.37,2013-08-20 21:34:00,
2013-08-20 22:39:00,58.3,56.0,30.16,WSW,257,0.0,0.0,92,0.00,-RA,OVC,0.09,0.0,WeatherDisplay:10.37,2013-08-20 21:39:00,
2013-08-20 22:44:00,58.4,56.1,30.16,ESE,123,0.0,0.0,92,0.00,-RA,OVC,0.09,0.0,WeatherDisplay:10.37,2013-08-20 21:44:00,
2013-08-20 22:49:00,58.4,56.1,30.16,ESE,123,0.0,0.0,92,0.00,-RA,OVC,0.09,0.0,WeatherDisplay:10.37,2013-08-20 21:49:00,
2013-08-20 22:54:00,58.4,56.1,30.16,WSW,238,0.0,0.0,92,0.00,-RA,OVC,0.09,0.0,WeatherDisplay:10.37,2013-08-20 21:54:00,
2013-08-20 22:59:00,58.4,56.1,30.16,WSW,248,1.2,1.2,92,0.00,-RA,OVC,0.09,0.0,WeatherDisplay:10.37,2013-08-20 21:59:00,
2013-08-20 23:04:00,58.3,56.0,30.16,WSW,248,0.0,0.0,92,0.00,CLR,OVC,0.09,0.0,WeatherDisplay:10.37,2013-08-20 22:04:00,
2013-08-20 23:09:00,58.3,56.0,30.15,WSW,249,0.0,0.0,92,0.00,CLR,OVC,0.09,0.0,WeatherDisplay:10.37,2013-08-20 22:09:00,
2013-08-20 23:14:00,58.3,56.0,30.15,WSW,248,0.0,0.0,92,0.00,CLR,OVC,0.09,0.0,WeatherDisplay:10.37,2013-08-20 22:14:00,
2013-08-20 23:19:00,58.3,56.0,30.15,WSW,248,0.0,0.0,92,0.00,CLR,OVC,0.09,0.0,WeatherDisplay:10.37,2013-08-20 22:19:00,
2013-08-20 23:24:00,58.3,56.0,30.15,WSW,248,0.0,0.0,92,0.00,CLR,OVC,0.09,0.0,WeatherDisplay:10.37,2013-08-20 22:24:00,
2013-08-20 23:29:00,58.3,56.0,30.15,WSW,248,0.0,0.0,92,0.00,CLR,OVC,0.09,0.0,WeatherDisplay:10.37,2013-08-20 22:29:00,
2013-08-20 23:34:00,58.3,56.0,30.15,WSW,248,0.0,0.0,92,0.00,CLR,OVC,0.09,0.0,WeatherDisplay:10.37,2013-08-20 22:34:00,
2013-08-20 23:39:00,58.4,56.1,30.14,WSW,248,0.0,0.0,92,0.00,CLR,OVC,0.09,0.0,WeatherDisplay:10.37,2013-08-20 22:39:00,
2013-08-20 23:44:00,58.4,56.1,30.14,WSW,249,0.0,0.0,92,0.00,CLR,OVC,0.09,0.0,WeatherDisplay:10.37,2013-08-20 22:44:00,
2013-08-20 23:49:00,58.4,56.1,30.14,WSW,249,0.0,0.0,92,0.00,CLR,OVC,0.09,0.0,WeatherDisplay:10.37,2013-08-20 22:49:00,
2013-08-20 23:54:00,58.4,56.1,30.14,WSW,248,1.2,1.2,92,0.01,RA,OVC,0.10,0.0,WeatherDisplay:10.37,2013-08-20 22:54:00,
2013-08-20 23:59:00,58.4,56.1,30.14,WSW,250,1.2,0.0,92,0.01,RA,OVC,0.10,0.0,WeatherDisplay:10.37,2013-08-20 22:59:00,